createdAt,value
2018-04-14T00:00:26.000Z,100151
2018-04-14T00:02:26.000Z,100155
2018-04-14T00:04:11.000Z,100156
2018-04-14T00:05:26.000Z,100159
2018-04-14T00:06:26.000Z,100153
2018-04-14T00:08:26.000Z,100158
2018-04-14T00:09:26.000Z,100158
2018-04-14T00:11:26.000Z,100163
2018-04-14T00:12:26.000Z,100171
2018-04-14T00:13:26.000Z,100167
2018-04-14T00:15:26.000Z,100169
2018-04-14T00:17:26.000Z,100166
2018-04-14T00:19:26.000Z,100179
2018-04-14T00:21:26.000Z,100177
2018-04-14T00:22:26.000Z,100182
2018-04-14T00:23:26.000Z,100179
2018-04-14T00:24:26.000Z,100180
2018-04-14T00:26:11.000Z,100179
2018-04-14T00:27:26.000Z,100178
2018-04-14T00:28:26.000Z,100176
2018-04-14T00:30:26.000Z,100176
2018-04-14T00:31:26.000Z,100177
2018-04-14T00:33:11.000Z,100184
2018-04-14T00:34:26.000Z,100190
2018-04-14T00:36:26.000Z,100194
2018-04-14T00:37:26.000Z,100195
2018-04-14T00:38:26.000Z,100190
2018-04-14T00:40:26.000Z,100191
2018-04-14T00:42:26.000Z,100196
2018-04-14T00:43:56.000Z,100194
2018-04-14T00:45:26.000Z,100199
2018-04-14T00:47:26.000Z,100202
2018-04-14T00:49:11.000Z,100197
2018-04-14T00:50:26.000Z,100203
2018-04-14T00:52:26.000Z,100205
2018-04-14T00:53:26.000Z,100205
2018-04-14T00:55:26.000Z,100207
2018-04-14T00:57:11.000Z,100207
2018-04-14T00:58:26.000Z,100204
2018-04-14T01:00:26.000Z,100204
2018-04-14T01:01:26.000Z,100205
2018-04-14T01:02:26.000Z,100208
2018-04-14T01:04:26.000Z,100202
2018-04-14T01:06:11.000Z,100204
2018-04-14T01:07:26.000Z,100207
2018-04-14T01:08:26.000Z,100209
2018-04-14T01:10:26.000Z,100212
2018-04-14T01:12:26.000Z,100208
2018-04-14T01:13:26.000Z,100208
2018-04-14T01:15:26.000Z,100209
2018-04-14T01:16:26.000Z,100212
2018-04-14T01:18:26.000Z,100213
2018-04-14T01:20:11.000Z,100206
2018-04-14T01:21:26.000Z,100207
2018-04-14T01:23:26.000Z,100202
2018-04-14T01:25:26.000Z,100199
2018-04-14T01:26:26.000Z,100200
2018-04-14T01:28:26.000Z,100198
2018-04-14T01:30:26.000Z,100202
2018-04-14T01:32:26.000Z,100207
2018-04-14T01:34:26.000Z,100211
2018-04-14T01:35:56.000Z,100205
2018-04-14T01:37:26.000Z,100209
2018-04-14T01:38:26.000Z,100210
2018-04-14T01:40:26.000Z,100217
2018-04-14T01:42:26.000Z,100213
2018-04-14T01:44:26.000Z,100213
2018-04-14T01:46:26.000Z,100208
2018-04-14T01:47:26.000Z,100211
2018-04-14T01:49:11.000Z,100201
2018-04-14T01:50:26.000Z,100204
2018-04-14T01:51:26.000Z,100205
2018-04-14T01:52:26.000Z,100204
2018-04-14T01:54:26.000Z,100207
2018-04-14T01:55:26.000Z,100212
2018-04-14T01:56:26.000Z,100208
2018-04-14T01:58:26.000Z,100210
2018-04-14T02:00:26.000Z,100207
2018-04-14T02:02:26.000Z,100206
2018-04-14T02:03:26.000Z,100207
2018-04-14T02:04:26.000Z,100204
2018-04-14T02:06:11.000Z,100196
2018-04-14T02:07:26.000Z,100203
2018-04-14T02:09:26.000Z,100200
2018-04-14T02:10:26.000Z,100200
2018-04-14T02:11:26.000Z,100196
2018-04-14T02:13:26.000Z,100203
2018-04-14T02:14:26.000Z,100203
2018-04-14T02:15:26.000Z,100202
2018-04-14T02:17:26.000Z,100205
2018-04-14T02:19:26.000Z,100205
2018-04-14T02:20:26.000Z,100203
2018-04-14T02:22:26.000Z,100205
2018-04-14T02:24:26.000Z,100208
2018-04-14T02:26:26.000Z,100206
2018-04-14T02:27:26.000Z,100207
2018-04-14T02:29:26.000Z,100203
2018-04-14T02:31:26.000Z,100202
2018-04-14T02:33:26.000Z,100206
2018-04-14T02:35:26.000Z,100209
2018-04-14T02:36:26.000Z,100207
2018-04-14T02:38:11.000Z,100205
2018-04-14T02:39:26.000Z,100201
2018-04-14T02:41:26.000Z,100210
2018-04-14T02:43:26.000Z,100208
2018-04-14T02:44:26.000Z,100210
2018-04-14T02:46:11.000Z,100208
2018-04-14T02:47:26.000Z,100211
2018-04-14T02:49:26.000Z,100208
2018-04-14T02:51:26.000Z,100204
2018-04-14T02:52:26.000Z,100205
2018-04-14T02:54:11.000Z,100207
2018-04-14T02:55:26.000Z,100210
2018-04-14T02:57:26.000Z,100210
2018-04-14T02:58:26.000Z,100213
2018-04-14T03:00:26.000Z,100211
2018-04-14T03:01:26.000Z,100209
2018-04-14T03:03:26.000Z,100206
2018-04-14T03:04:26.000Z,100208
2018-04-14T03:05:26.000Z,100207
2018-04-14T03:07:26.000Z,100210
2018-04-14T03:09:26.000Z,100204
2018-04-14T03:11:26.000Z,100213
2018-04-14T03:13:26.000Z,100212
2018-04-14T03:15:26.000Z,100209
2018-04-14T03:17:26.000Z,100205
2018-04-14T03:19:26.000Z,100205
2018-04-14T03:20:26.000Z,100211
2018-04-14T03:21:26.000Z,100210
2018-04-14T03:22:26.000Z,100218
2018-04-14T03:24:26.000Z,100221
2018-04-14T03:25:26.000Z,100224
2018-04-14T03:27:26.000Z,100231
2018-04-14T03:29:11.000Z,100232
2018-04-14T03:30:26.000Z,100224
2018-04-14T03:31:26.000Z,100229
2018-04-14T03:32:26.000Z,100225
2018-04-14T03:34:11.000Z,100227
2018-04-14T03:35:26.000Z,100230
2018-04-14T03:37:26.000Z,100225
2018-04-14T03:39:26.000Z,100225
2018-04-14T03:41:26.000Z,100222
2018-04-14T03:42:26.000Z,100225
2018-04-14T03:43:26.000Z,100225
2018-04-14T03:44:26.000Z,100226
2018-04-14T03:45:26.000Z,100228
2018-04-14T03:47:26.000Z,100225
2018-04-14T03:49:26.000Z,100227
2018-04-14T03:50:26.000Z,100234
2018-04-14T03:51:56.000Z,100233
2018-04-14T03:53:26.000Z,100245
2018-04-14T03:55:26.000Z,100245
2018-04-14T03:56:26.000Z,100242
2018-04-14T03:58:11.000Z,100239
2018-04-14T03:59:26.000Z,100239
2018-04-14T04:00:56.000Z,100237
2018-04-14T04:02:26.000Z,100241
2018-04-14T04:04:26.000Z,100245
2018-04-14T04:06:26.000Z,100240
2018-04-14T04:08:26.000Z,100242
2018-04-14T04:09:26.000Z,100246
2018-04-14T04:11:26.000Z,100246
2018-04-14T04:13:26.000Z,100247
2018-04-14T04:15:26.000Z,100259
2018-04-14T04:17:26.000Z,100263
2018-04-14T04:18:26.000Z,100261
2018-04-14T04:20:26.000Z,100266
2018-04-14T04:22:26.000Z,100267
2018-04-14T04:24:26.000Z,100274
2018-04-14T04:26:26.000Z,100273
2018-04-14T04:28:26.000Z,100282
2018-04-14T04:30:26.000Z,100285
2018-04-14T04:32:26.000Z,100284
2018-04-14T04:34:26.000Z,100284
2018-04-14T04:35:26.000Z,100286
2018-04-14T04:37:26.000Z,100295
2018-04-14T04:39:26.000Z,100299
2018-04-14T04:40:26.000Z,100297
2018-04-14T04:42:26.000Z,100303
2018-04-14T04:44:26.000Z,100303
2018-04-14T04:46:26.000Z,100309
2018-04-14T04:48:26.000Z,100311
2018-04-14T04:50:26.000Z,100313
2018-04-14T04:52:26.000Z,100315
2018-04-14T04:53:26.000Z,100316
2018-04-14T04:55:26.000Z,100313
2018-04-14T04:57:26.000Z,100326
2018-04-14T04:58:26.000Z,100324
2018-04-14T05:00:26.000Z,100327
2018-04-14T05:02:26.000Z,100336
2018-04-14T05:03:26.000Z,100337
2018-04-14T05:05:26.000Z,100334
2018-04-14T05:07:26.000Z,100342
2018-04-14T05:09:26.000Z,100339
2018-04-14T05:11:26.000Z,100337
2018-04-14T05:12:26.000Z,100341
2018-04-14T05:14:26.000Z,100340
2018-04-14T05:16:26.000Z,100349
2018-04-14T05:18:26.000Z,100344
2018-04-14T05:20:11.000Z,100352
2018-04-14T05:22:26.000Z,100361
2018-04-14T05:24:26.000Z,100368
2018-04-14T05:25:26.000Z,100366
2018-04-14T05:26:26.000Z,100373
2018-04-14T05:28:26.000Z,100371
2018-04-14T05:29:26.000Z,100372
2018-04-14T05:31:26.000Z,100371
2018-04-14T05:33:26.000Z,100376
2018-04-14T05:34:26.000Z,100376
2018-04-14T05:36:26.000Z,100372
2018-04-14T05:38:26.000Z,100374
2018-04-14T05:40:26.000Z,100376
2018-04-14T05:42:11.000Z,100382
2018-04-14T05:43:26.000Z,100378
2018-04-14T05:45:26.000Z,100381
2018-04-14T05:47:26.000Z,100376
2018-04-14T05:49:26.000Z,100372
2018-04-14T05:50:26.000Z,100374
2018-04-14T05:52:26.000Z,100374
2018-04-14T05:54:26.000Z,100373
2018-04-14T05:55:26.000Z,100374
2018-04-14T05:57:26.000Z,100381
2018-04-14T05:59:11.000Z,100376
2018-04-14T06:00:26.000Z,100377
2018-04-14T06:01:26.000Z,100379
2018-04-14T06:03:11.000Z,100382
2018-04-14T06:04:26.000Z,100383
2018-04-14T06:05:26.000Z,100377
2018-04-14T06:07:26.000Z,100388
2018-04-14T06:08:26.000Z,100392
2018-04-14T06:10:26.000Z,100396
2018-04-14T06:11:26.000Z,100394
2018-04-14T06:13:11.000Z,100386
2018-04-14T06:14:26.000Z,100399
2018-04-14T06:15:26.000Z,100399
2018-04-14T06:16:26.000Z,100406
2018-04-14T06:18:26.000Z,100406
2018-04-14T06:19:26.000Z,100408
2018-04-14T06:21:26.000Z,100410
2018-04-14T06:23:11.000Z,100413
2018-04-14T06:24:26.000Z,100417
2018-04-14T06:26:26.000Z,100415
2018-04-14T06:27:26.000Z,100413
2018-04-14T06:29:26.000Z,100417
2018-04-14T06:30:26.000Z,100419
2018-04-14T06:31:26.000Z,100424
2018-04-14T06:33:26.000Z,100426
2018-04-14T06:35:26.000Z,100425
2018-04-14T06:36:26.000Z,100420
2018-04-14T06:38:26.000Z,100420
2018-04-14T06:40:26.000Z,100423
2018-04-14T06:42:26.000Z,100428
2018-04-14T06:44:26.000Z,100438
2018-04-14T06:45:26.000Z,100434
2018-04-14T06:47:26.000Z,100443
2018-04-14T06:48:26.000Z,100446
2018-04-14T06:50:26.000Z,100452
2018-04-14T06:52:26.000Z,100447
2018-04-14T06:54:26.000Z,100453
2018-04-14T06:56:26.000Z,100455
2018-04-14T06:58:26.000Z,100449
2018-04-14T06:59:26.000Z,100453
2018-04-14T07:01:26.000Z,100446
2018-04-14T07:02:26.000Z,100452
2018-04-14T07:04:26.000Z,100451
2018-04-14T07:06:26.000Z,100450
2018-04-14T07:07:26.000Z,100450
2018-04-14T07:09:11.000Z,100452
2018-04-14T07:10:26.000Z,100449
2018-04-14T07:12:26.000Z,100457
2018-04-14T07:13:26.000Z,100460
2018-04-14T07:15:26.000Z,100454
2018-04-14T07:17:26.000Z,100461
2018-04-14T07:18:26.000Z,100456
2018-04-14T07:20:26.000Z,100463
2018-04-14T07:21:26.000Z,100465
2018-04-14T07:22:26.000Z,100471
2018-04-14T07:24:11.000Z,100474
2018-04-14T07:25:26.000Z,100483
2018-04-14T07:26:26.000Z,100482
2018-04-14T07:27:26.000Z,100478
2018-04-14T07:29:26.000Z,100487
2018-04-14T07:31:26.000Z,100492
2018-04-14T07:33:26.000Z,100495
2018-04-14T07:35:26.000Z,100490
2018-04-14T07:37:26.000Z,100492
2018-04-14T07:39:26.000Z,100496
2018-04-14T07:41:26.000Z,100499
2018-04-14T07:43:26.000Z,100505
2018-04-14T07:45:26.000Z,100508
2018-04-14T07:46:26.000Z,100506
2018-04-14T07:48:26.000Z,100517
2018-04-14T07:49:26.000Z,100511
2018-04-14T07:51:26.000Z,100518
2018-04-14T07:53:26.000Z,100524
2018-04-14T07:54:26.000Z,100524
2018-04-14T07:56:26.000Z,100522
2018-04-14T07:58:26.000Z,100520
2018-04-14T08:00:26.000Z,100522
2018-04-14T08:02:26.000Z,100516
2018-04-14T08:04:26.000Z,100523
2018-04-14T08:06:26.000Z,100522
2018-04-14T08:08:26.000Z,100523
2018-04-14T08:10:26.000Z,100522
2018-04-14T08:12:26.000Z,100530
2018-04-14T08:14:26.000Z,100529
2018-04-14T08:16:26.000Z,100527
2018-04-14T08:18:26.000Z,100529
2018-04-14T08:20:26.000Z,100533
2018-04-14T08:22:26.000Z,100536
2018-04-14T08:23:26.000Z,100532
2018-04-14T08:25:26.000Z,100533
2018-04-14T08:27:26.000Z,100533
2018-04-14T08:29:11.000Z,100530
2018-04-14T08:30:26.000Z,100539
2018-04-14T08:32:26.000Z,100541
2018-04-14T08:34:11.000Z,100533
2018-04-14T08:35:26.000Z,100536
2018-04-14T08:37:11.000Z,100535
2018-04-14T08:38:26.000Z,100533
2018-04-14T08:40:27.000Z,100531
2018-04-14T08:42:27.000Z,100529
2018-04-14T08:43:27.000Z,100535
2018-04-14T08:45:27.000Z,100536
2018-04-14T08:47:27.000Z,100537
2018-04-14T08:48:27.000Z,100539
2018-04-14T08:50:27.000Z,100537
2018-04-14T08:51:27.000Z,100534
2018-04-14T08:53:27.000Z,100537
2018-04-14T08:55:11.000Z,100531
2018-04-14T08:56:27.000Z,100535
2018-04-14T08:58:27.000Z,100538
2018-04-14T09:00:27.000Z,100530
2018-04-14T09:01:27.000Z,100533
2018-04-14T09:03:27.000Z,100537
2018-04-14T09:05:11.000Z,100540
2018-04-14T09:06:26.000Z,100541
2018-04-14T09:07:27.000Z,100542
2018-04-14T09:09:27.000Z,100542
2018-04-14T09:10:27.000Z,100537
2018-04-14T09:12:27.000Z,100544
2018-04-14T09:13:27.000Z,100544
2018-04-14T09:15:27.000Z,100541
2018-04-14T09:17:26.000Z,100552
2018-04-14T09:18:27.000Z,100546
2018-04-14T09:20:27.000Z,100548
2018-04-14T09:22:27.000Z,100545
2018-04-14T09:24:27.000Z,100549
2018-04-14T09:26:27.000Z,100545
2018-04-14T09:28:11.000Z,100556
2018-04-14T09:29:11.000Z,100550
2018-04-14T09:30:27.000Z,100552
2018-04-14T09:32:11.000Z,100551
2018-04-14T09:33:11.000Z,100558
2018-04-14T09:34:27.000Z,100545
2018-04-14T09:35:27.000Z,100550
2018-04-14T09:37:27.000Z,100555
2018-04-14T09:39:27.000Z,100555
2018-04-14T09:41:27.000Z,100563
2018-04-14T09:42:27.000Z,100555
2018-04-14T09:44:26.000Z,100558
2018-04-14T09:46:26.000Z,100561
2018-04-14T09:47:26.000Z,100560
2018-04-14T09:49:11.000Z,100559
2018-04-14T09:50:26.000Z,100562
2018-04-14T09:51:26.000Z,100560
2018-04-14T09:52:26.000Z,100569
2018-04-14T09:54:26.000Z,100557
2018-04-14T09:56:26.000Z,100561
2018-04-14T09:58:26.000Z,100564
2018-04-14T10:00:26.000Z,100559
2018-04-14T10:02:26.000Z,100551
2018-04-14T10:03:26.000Z,100555
2018-04-14T10:04:26.000Z,100556
2018-04-14T10:06:26.000Z,100558
2018-04-14T10:08:26.000Z,100561
2018-04-14T10:10:26.000Z,100567
2018-04-14T10:12:26.000Z,100565
2018-04-14T10:14:11.000Z,100558
2018-04-14T10:15:26.000Z,100563
2018-04-14T10:17:26.000Z,100563
2018-04-14T10:19:26.000Z,100564
2018-04-14T10:20:26.000Z,100560
2018-04-14T10:21:26.000Z,100567
2018-04-14T10:23:26.000Z,100563
2018-04-14T10:25:26.000Z,100560
2018-04-14T10:27:26.000Z,100562
2018-04-14T10:29:26.000Z,100567
2018-04-14T10:30:26.000Z,100561
2018-04-14T10:31:26.000Z,100568
2018-04-14T10:32:26.000Z,100559
2018-04-14T10:34:26.000Z,100558
2018-04-14T10:36:26.000Z,100562
2018-04-14T10:38:26.000Z,100548
2018-04-14T10:40:26.000Z,100554
2018-04-14T10:42:26.000Z,100557
2018-04-14T10:43:26.000Z,100558
2018-04-14T10:45:26.000Z,100557
2018-04-14T10:46:26.000Z,100560
2018-04-14T10:48:27.000Z,100560
2018-04-14T10:50:11.000Z,100561
2018-04-14T10:51:27.000Z,100564
2018-04-14T10:53:27.000Z,100565
2018-04-14T10:54:27.000Z,100566
2018-04-14T10:56:27.000Z,100558
2018-04-14T10:58:11.000Z,100546
2018-04-14T11:00:27.000Z,100552
2018-04-14T11:02:11.000Z,100551
2018-04-14T11:03:27.000Z,100551
2018-04-14T11:05:27.000Z,100549
2018-04-14T11:07:27.000Z,100551
2018-04-14T11:09:27.000Z,100553
2018-04-14T11:10:27.000Z,100552
2018-04-14T11:12:11.000Z,100548
2018-04-14T11:13:27.000Z,100546
2018-04-14T11:15:11.000Z,100549
2018-04-14T11:16:27.000Z,100555
2018-04-14T11:17:27.000Z,100554
2018-04-14T11:19:27.000Z,100558
2018-04-14T11:20:27.000Z,100557
2018-04-14T11:22:27.000Z,100552
2018-04-14T11:23:27.000Z,100552
2018-04-14T11:25:11.000Z,100553
2018-04-14T11:26:27.000Z,100550
2018-04-14T11:28:27.000Z,100560
2018-04-14T11:30:27.000Z,100558
2018-04-14T11:32:27.000Z,100560
2018-04-14T11:33:27.000Z,100557
2018-04-14T11:34:27.000Z,100555
2018-04-14T11:36:27.000Z,100556
2018-04-14T11:37:27.000Z,100549
2018-04-14T11:38:27.000Z,100554
2018-04-14T11:40:27.000Z,100559
2018-04-14T11:42:27.000Z,100557
2018-04-14T11:44:27.000Z,100554
2018-04-14T11:46:27.000Z,100555
2018-04-14T11:48:27.000Z,100556
2018-04-14T11:50:27.000Z,100554
2018-04-14T11:52:26.000Z,100549
2018-04-14T11:53:26.000Z,100552
2018-04-14T11:55:26.000Z,100550
2018-04-14T11:56:56.000Z,100549
2018-04-14T11:58:26.000Z,100554
2018-04-14T12:00:26.000Z,100549
2018-04-14T12:02:26.000Z,100555
2018-04-14T12:04:26.000Z,100553
2018-04-14T12:06:26.000Z,100557
2018-04-14T12:08:26.000Z,100560
2018-04-14T12:10:26.000Z,100564
2018-04-14T12:11:27.000Z,100564
2018-04-14T12:13:26.000Z,100569
2018-04-14T12:15:26.000Z,100562
2018-04-14T12:17:26.000Z,100558
2018-04-14T12:19:26.000Z,100564
2018-04-14T12:21:26.000Z,100562
2018-04-14T12:23:26.000Z,100563
2018-04-14T12:25:26.000Z,100566
2018-04-14T12:27:26.000Z,100570
2018-04-14T12:29:26.000Z,100572
2018-04-14T12:31:26.000Z,100571
2018-04-14T12:33:26.000Z,100573
2018-04-14T12:34:26.000Z,100567
2018-04-14T12:36:26.000Z,100565
2018-04-14T12:37:26.000Z,100569
2018-04-14T12:39:26.000Z,100562
2018-04-14T12:40:26.000Z,100569
2018-04-14T12:42:11.000Z,100561
2018-04-14T12:43:26.000Z,100558
2018-04-14T12:45:11.000Z,100562
2018-04-14T12:46:26.000Z,100559
2018-04-14T12:47:26.000Z,100562
2018-04-14T12:49:11.000Z,100565
2018-04-14T12:50:26.000Z,100560
2018-04-14T12:51:26.000Z,100558
2018-04-14T12:53:26.000Z,100565
2018-04-14T12:55:26.000Z,100563
2018-04-14T12:57:26.000Z,100558
2018-04-14T12:59:26.000Z,100555
2018-04-14T13:00:26.000Z,100550
2018-04-14T13:01:26.000Z,100556
2018-04-14T13:03:26.000Z,100558
2018-04-14T13:04:26.000Z,100566
2018-04-14T13:06:26.000Z,100563
2018-04-14T13:08:11.000Z,100556
2018-04-14T13:09:26.000Z,100555
2018-04-14T13:10:26.000Z,100557
2018-04-14T13:12:26.000Z,100552
2018-04-14T13:13:26.000Z,100546
2018-04-14T13:15:26.000Z,100549
2018-04-14T13:17:11.000Z,100551
2018-04-14T13:18:26.000Z,100554
2018-04-14T13:19:26.000Z,100559
2018-04-14T13:21:26.000Z,100553
2018-04-14T13:23:26.000Z,100549
2018-04-14T13:25:26.000Z,100556
2018-04-14T13:26:26.000Z,100553
2018-04-14T13:28:26.000Z,100550
2018-04-14T13:29:26.000Z,100545
2018-04-14T13:31:26.000Z,100554
2018-04-14T13:33:26.000Z,100544
2018-04-14T13:35:11.000Z,100550
2018-04-14T13:36:26.000Z,100552
2018-04-14T13:37:26.000Z,100556
2018-04-14T13:39:26.000Z,100551
2018-04-14T13:41:26.000Z,100558
2018-04-14T13:42:26.000Z,100553
2018-04-14T13:44:26.000Z,100550
2018-04-14T13:46:26.000Z,100555
2018-04-14T13:47:26.000Z,100553
2018-04-14T13:48:26.000Z,100551
2018-04-14T13:50:11.000Z,100550
2018-04-14T13:51:26.000Z,100551
2018-04-14T13:52:26.000Z,100554
2018-04-14T13:54:26.000Z,100555
2018-04-14T13:55:26.000Z,100551
2018-04-14T13:57:26.000Z,100557
2018-04-14T13:59:11.000Z,100550
2018-04-14T14:00:26.000Z,100556
2018-04-14T14:02:26.000Z,100548
2018-04-14T14:03:26.000Z,100552
2018-04-14T14:05:11.000Z,100547
2018-04-14T14:06:26.000Z,100544
2018-04-14T14:07:26.000Z,100541
2018-04-14T14:09:26.000Z,100537
2018-04-14T14:10:26.000Z,100533
2018-04-14T14:12:26.000Z,100535
2018-04-14T14:14:26.000Z,100537
2018-04-14T14:16:11.000Z,100534
2018-04-14T14:17:26.000Z,100529
2018-04-14T14:19:26.000Z,100532
2018-04-14T14:21:11.000Z,100526
2018-04-14T14:22:26.000Z,100527
2018-04-14T14:23:26.000Z,100529
2018-04-14T14:25:26.000Z,100524
2018-04-14T14:27:26.000Z,100528
2018-04-14T14:29:26.000Z,100523
2018-04-14T14:31:11.000Z,100518
2018-04-14T14:32:26.000Z,100520
2018-04-14T14:33:26.000Z,100520
2018-04-14T14:35:26.000Z,100518
2018-04-14T14:37:26.000Z,100514
2018-04-14T14:39:11.000Z,100512
2018-04-14T14:40:26.000Z,100501
2018-04-14T14:42:26.000Z,100510
2018-04-14T14:43:26.000Z,100510
2018-04-14T14:45:26.000Z,100513
2018-04-14T14:46:26.000Z,100509
2018-04-14T14:47:26.000Z,100514
2018-04-14T14:49:11.000Z,100507
2018-04-14T14:50:26.000Z,100504
2018-04-14T14:51:26.000Z,100500
2018-04-14T14:53:26.000Z,100502
2018-04-14T14:54:26.000Z,100505
2018-04-14T14:56:26.000Z,100500
2018-04-14T14:57:26.000Z,100496
2018-04-14T14:59:26.000Z,100496
2018-04-14T15:00:26.000Z,100493
2018-04-14T15:02:26.000Z,100484
2018-04-14T15:04:26.000Z,100484
2018-04-14T15:05:26.000Z,100485
2018-04-14T15:07:26.000Z,100482
2018-04-14T15:09:11.000Z,100477
2018-04-14T15:10:26.000Z,100477
2018-04-14T15:11:26.000Z,100479
2018-04-14T15:13:11.000Z,100477
2018-04-14T15:14:26.000Z,100475
2018-04-14T15:15:26.000Z,100474
2018-04-14T15:17:26.000Z,100472
2018-04-14T15:19:26.000Z,100470
2018-04-14T15:21:26.000Z,100461
2018-04-14T15:22:26.000Z,100462
2018-04-14T15:24:11.000Z,100461
2018-04-14T15:25:11.000Z,100460
2018-04-14T15:26:26.000Z,100459
2018-04-14T15:28:26.000Z,100450
2018-04-14T15:29:26.000Z,100449
2018-04-14T15:30:26.000Z,100456
2018-04-14T15:32:26.000Z,100453
2018-04-14T15:33:26.000Z,100458
2018-04-14T15:35:26.000Z,100463
2018-04-14T15:37:26.000Z,100459
2018-04-14T15:39:11.000Z,100458
2018-04-14T15:40:26.000Z,100457
2018-04-14T15:41:26.000Z,100456
2018-04-14T15:42:26.000Z,100456
2018-04-14T15:44:26.000Z,100456
2018-04-14T15:46:26.000Z,100461
2018-04-14T15:47:26.000Z,100462
2018-04-14T15:49:26.000Z,100460
2018-04-14T15:50:26.000Z,100461
2018-04-14T15:52:26.000Z,100455
2018-04-14T15:53:26.000Z,100454
2018-04-14T15:55:26.000Z,100456
2018-04-14T15:56:26.000Z,100456
2018-04-14T15:58:26.000Z,100453
2018-04-14T15:59:26.000Z,100453
2018-04-14T16:00:26.000Z,100450
2018-04-14T16:02:26.000Z,100456
2018-04-14T16:04:26.000Z,100461
2018-04-14T16:06:26.000Z,100464
2018-04-14T16:08:26.000Z,100463
2018-04-14T16:09:26.000Z,100467
2018-04-14T16:11:26.000Z,100469
2018-04-14T16:12:26.000Z,100466
2018-04-14T16:14:26.000Z,100469
2018-04-14T16:15:26.000Z,100458
2018-04-14T16:17:11.000Z,100464
2018-04-14T16:18:26.000Z,100467
2018-04-14T16:20:26.000Z,100468
2018-04-14T16:22:26.000Z,100470
2018-04-14T16:24:26.000Z,100470
2018-04-14T16:26:26.000Z,100465
2018-04-14T16:27:26.000Z,100466
2018-04-14T16:29:26.000Z,100469
2018-04-14T16:30:26.000Z,100474
2018-04-14T16:31:26.000Z,100466
2018-04-14T16:33:26.000Z,100471
2018-04-14T16:34:26.000Z,100474
2018-04-14T16:36:26.000Z,100477
2018-04-14T16:38:26.000Z,100477
2018-04-14T16:40:26.000Z,100475
2018-04-14T16:41:26.000Z,100474
2018-04-14T16:43:26.000Z,100474
2018-04-14T16:45:26.000Z,100475
2018-04-14T16:46:26.000Z,100468
2018-04-14T16:48:26.000Z,100470
2018-04-14T16:50:26.000Z,100463
2018-04-14T16:51:26.000Z,100459
2018-04-14T16:53:26.000Z,100459
2018-04-14T16:55:26.000Z,100463
2018-04-14T16:57:26.000Z,100454
2018-04-14T16:59:26.000Z,100468
2018-04-14T17:01:11.000Z,100464
2018-04-14T17:02:26.000Z,100464
2018-04-14T17:04:26.000Z,100471
2018-04-14T17:06:26.000Z,100468
2018-04-14T17:08:26.000Z,100466
2018-04-14T17:10:27.000Z,100470
2018-04-14T17:12:27.000Z,100464
2018-04-14T17:14:27.000Z,100467
2018-04-14T17:16:27.000Z,100460
2018-04-14T17:17:27.000Z,100462
2018-04-14T17:19:11.000Z,100458
2018-04-14T17:20:27.000Z,100462
2018-04-14T17:22:27.000Z,100459
2018-04-14T17:23:27.000Z,100459
2018-04-14T17:25:27.000Z,100461
2018-04-14T17:27:27.000Z,100455
2018-04-14T17:28:27.000Z,100461
2018-04-14T17:30:27.000Z,100460
2018-04-14T17:31:27.000Z,100456
2018-04-14T17:32:27.000Z,100454
2018-04-14T17:34:27.000Z,100458
2018-04-14T17:36:27.000Z,100453
2018-04-14T17:38:27.000Z,100456
2018-04-14T17:40:27.000Z,100454
2018-04-14T17:42:27.000Z,100460
2018-04-14T17:44:27.000Z,100460
2018-04-14T17:46:27.000Z,100462
2018-04-14T17:47:56.000Z,100463
2018-04-14T17:49:27.000Z,100461
2018-04-14T17:51:27.000Z,100461
2018-04-14T17:53:27.000Z,100457
2018-04-14T17:54:27.000Z,100463
2018-04-14T17:56:27.000Z,100464
2018-04-14T17:57:27.000Z,100472
2018-04-14T17:59:27.000Z,100469
2018-04-14T18:01:27.000Z,100473
2018-04-14T18:03:27.000Z,100472
2018-04-14T18:05:27.000Z,100471
2018-04-14T18:06:27.000Z,100471
2018-04-14T18:08:27.000Z,100472
2018-04-14T18:09:27.000Z,100478
2018-04-14T18:11:27.000Z,100472
2018-04-14T18:13:26.000Z,100475
2018-04-14T18:15:26.000Z,100476
2018-04-14T18:17:11.000Z,100476
2018-04-14T18:18:26.000Z,100478
2018-04-14T18:19:56.000Z,100489
2018-04-14T18:21:26.000Z,100479
2018-04-14T18:22:26.000Z,100479
2018-04-14T18:24:26.000Z,100481
2018-04-14T18:26:26.000Z,100482
2018-04-14T18:27:26.000Z,100484
2018-04-14T18:29:26.000Z,100487
2018-04-14T18:31:26.000Z,100482
2018-04-14T18:33:26.000Z,100490
2018-04-14T18:35:11.000Z,100497
2018-04-14T18:36:26.000Z,100494
2018-04-14T18:38:26.000Z,100497
2018-04-14T18:40:26.000Z,100501
2018-04-14T18:41:26.000Z,100495
2018-04-14T18:42:26.000Z,100497
2018-04-14T18:44:26.000Z,100495
2018-04-14T18:46:26.000Z,100498
2018-04-14T18:47:26.000Z,100502
2018-04-14T18:49:26.000Z,100501
2018-04-14T18:50:26.000Z,100498
2018-04-14T18:52:26.000Z,100495
2018-04-14T18:53:26.000Z,100496
2018-04-14T18:55:11.000Z,100492
2018-04-14T18:56:26.000Z,100493
2018-04-14T18:58:26.000Z,100495
2018-04-14T19:00:26.000Z,100494
2018-04-14T19:01:26.000Z,100487
2018-04-14T19:03:26.000Z,100491
2018-04-14T19:05:26.000Z,100491
2018-04-14T19:06:26.000Z,100493
2018-04-14T19:08:26.000Z,100492
2018-04-14T19:09:26.000Z,100498
2018-04-14T19:11:26.000Z,100498
2018-04-14T19:12:26.000Z,100503
2018-04-14T19:13:26.000Z,100494
2018-04-14T19:15:26.000Z,100493
2018-04-14T19:17:11.000Z,100495
2018-04-14T19:18:27.000Z,100501
2018-04-14T19:20:27.000Z,100497
2018-04-14T19:22:27.000Z,100498
2018-04-14T19:24:27.000Z,100500
2018-04-14T19:25:27.000Z,100508
2018-04-14T19:27:27.000Z,100508
2018-04-14T19:29:27.000Z,100501
2018-04-14T19:31:27.000Z,100504
2018-04-14T19:32:27.000Z,100503
2018-04-14T19:34:27.000Z,100494
2018-04-14T19:36:27.000Z,100495
2018-04-14T19:38:27.000Z,100503
2018-04-14T19:40:27.000Z,100509
2018-04-14T19:42:27.000Z,100508
2018-04-14T19:43:27.000Z,100502
2018-04-14T19:45:27.000Z,100503
2018-04-14T19:46:27.000Z,100503
2018-04-14T19:47:27.000Z,100492
2018-04-14T19:49:27.000Z,100501
2018-04-14T19:50:27.000Z,100500
2018-04-14T19:52:27.000Z,100500
2018-04-14T19:54:27.000Z,100503
2018-04-14T19:56:27.000Z,100504
2018-04-14T19:58:27.000Z,100501
2018-04-14T19:59:27.000Z,100509
2018-04-14T20:01:27.000Z,100509
2018-04-14T20:03:11.000Z,100504
2018-04-14T20:04:27.000Z,100500
2018-04-14T20:06:27.000Z,100504
2018-04-14T20:07:27.000Z,100497
2018-04-14T20:09:27.000Z,100495
2018-04-14T20:10:27.000Z,100491
2018-04-14T20:12:27.000Z,100490
2018-04-14T20:14:27.000Z,100498